createdAt,value
2018-04-17T00:00:25.351Z,12.80
2018-04-17T00:02:53.212Z,12.80
2018-04-17T00:05:21.256Z,12.80
2018-04-17T00:07:49.212Z,12.70
2018-04-17T00:10:17.012Z,12.60
2018-04-17T00:12:44.912Z,12.60
2018-04-17T00:15:12.692Z,12.60
2018-04-17T00:17:40.852Z,12.60
2018-04-17T00:20:08.791Z,12.60
2018-04-17T00:22:36.671Z,12.60
2018-04-17T00:25:04.591Z,12.60
2018-04-17T00:27:32.791Z,12.60
2018-04-17T00:30:02.630Z,12.50
2018-04-17T00:32:30.468Z,12.60
2018-04-17T00:34:58.530Z,12.60
2018-04-17T00:37:26.450Z,12.60
2018-04-17T00:39:54.408Z,12.60
2018-04-17T00:42:22.409Z,12.60
2018-04-17T00:47:22.650Z,12.70
2018-04-17T00:49:50.670Z,12.70
2018-04-17T00:52:18.610Z,12.70
2018-04-17T00:54:46.612Z,12.70
2018-04-17T00:57:15.350Z,12.70
2018-04-17T00:59:43.230Z,12.70
2018-04-17T01:02:11.136Z,12.70
2018-04-17T01:04:38.996Z,12.70
2018-04-17T01:07:07.156Z,12.70
2018-04-17T01:09:35.199Z,12.70
2018-04-17T01:12:03.056Z,12.70
2018-04-17T01:14:31.016Z,12.80
2018-04-17T01:16:59.337Z,12.80
2018-04-17T01:19:27.136Z,12.70
2018-04-17T01:21:54.935Z,12.70
2018-04-17T01:24:23.415Z,12.70
2018-04-17T01:26:51.297Z,12.70
2018-04-17T01:29:19.056Z,12.60
2018-04-17T01:31:47.656Z,12.60
2018-04-17T01:34:15.735Z,12.60
2018-04-17T01:36:43.615Z,12.60
2018-04-17T01:39:11.395Z,12.50
2018-04-17T01:41:39.256Z,12.60
2018-04-17T01:44:07.175Z,12.50
2018-04-17T01:46:35.175Z,12.50
2018-04-17T01:49:03.075Z,12.50
2018-04-17T01:51:31.032Z,12.50
2018-04-17T01:54:00.073Z,12.50
2018-04-17T01:56:28.714Z,12.40
2018-04-17T01:58:56.495Z,12.40
2018-04-17T02:01:24.433Z,12.40
2018-04-17T02:03:52.723Z,12.40
2018-04-17T02:06:20.654Z,12.40
2018-04-17T02:08:48.974Z,12.40
2018-04-17T02:11:16.854Z,12.40
2018-04-17T02:13:44.834Z,12.40
2018-04-17T02:16:12.822Z,12.40
2018-04-17T02:18:40.905Z,12.50
2018-04-17T02:21:11.111Z,12.50
2018-04-17T02:23:39.242Z,12.50
2018-04-17T02:26:07.341Z,12.50
2018-04-17T02:28:35.472Z,12.40
2018-04-17T02:31:05.241Z,12.40
2018-04-17T02:33:33.501Z,12.40
2018-04-17T02:36:01.563Z,12.40
2018-04-17T02:38:33.644Z,12.40
2018-04-17T02:41:01.663Z,12.40
2018-04-17T02:43:29.736Z,12.40
2018-04-17T02:45:58.032Z,12.40
2018-04-17T02:48:26.062Z,12.30
2018-04-17T02:50:54.123Z,12.30
2018-04-17T02:53:22.224Z,12.30
2018-04-17T02:55:50.262Z,12.30
2018-04-17T02:58:18.301Z,12.30
2018-04-17T03:00:46.505Z,12.20
2018-04-17T03:03:14.516Z,12.30
2018-04-17T03:05:42.663Z,12.30
2018-04-17T03:08:10.819Z,12.30
2018-04-17T03:10:39.670Z,12.30
2018-04-17T03:13:07.690Z,12.30
2018-04-17T03:15:38.620Z,12.30
2018-04-17T03:18:06.640Z,12.30
2018-04-17T03:20:34.801Z,12.30
2018-04-17T03:23:03.770Z,12.20
2018-04-17T03:25:31.860Z,12.20
2018-04-17T03:28:00.140Z,12.20
2018-04-17T03:30:28.212Z,12.20
2018-04-17T03:32:59.631Z,12.20
2018-04-17T03:35:30.510Z,12.20
2018-04-17T03:37:58.601Z,12.20
2018-04-17T03:40:26.670Z,12.30
2018-04-17T03:42:54.920Z,12.20
2018-04-17T03:45:23.019Z,12.20
2018-04-17T03:47:51.209Z,12.20
2018-04-17T03:50:19.578Z,12.20
2018-04-17T03:52:47.719Z,12.20
2018-04-17T03:55:15.741Z,12.20
2018-04-17T03:57:44.009Z,12.20
2018-04-17T04:00:13.451Z,12.20
2018-04-17T04:02:41.553Z,12.20
2018-04-17T04:05:09.908Z,12.20
2018-04-17T04:07:37.897Z,12.20
2018-04-17T04:10:09.118Z,12.20
2018-04-17T04:12:37.398Z,12.20
2018-04-17T04:15:05.489Z,12.20
2018-04-17T04:17:54.180Z,12.20
2018-04-17T04:20:33.763Z,12.20
2018-04-17T04:23:13.412Z,12.20
2018-04-17T04:28:50.035Z,12.20
2018-04-17T04:31:18.114Z,12.20
2018-04-17T04:33:47.992Z,12.20
2018-04-17T04:36:16.112Z,12.20
2018-04-17T04:38:44.192Z,12.10
2018-04-17T04:41:12.272Z,12.10
2018-04-17T04:43:40.464Z,12.20
2018-04-17T04:46:08.453Z,12.20
2018-04-17T04:48:36.464Z,12.20
2018-04-17T04:51:05.583Z,12.20
2018-04-17T04:53:33.613Z,12.10
2018-04-17T04:56:01.817Z,12.20
2018-04-17T04:58:30.013Z,12.20
2018-04-17T05:00:57.989Z,12.10
2018-04-17T05:03:26.033Z,12.20
2018-04-17T05:05:54.954Z,12.10
2018-04-17T05:08:22.933Z,12.10
2018-04-17T05:10:51.014Z,12.10
2018-04-17T05:13:19.223Z,12.10
2018-04-17T05:15:47.213Z,12.10
2018-04-17T05:18:15.394Z,12.00
2018-04-17T05:20:45.633Z,12.10
2018-04-17T05:23:14.374Z,12.00
2018-04-17T05:25:42.394Z,12.00
2018-04-17T05:28:10.465Z,12.00
2018-04-17T05:30:38.514Z,12.10
2018-04-17T05:33:06.597Z,12.10
2018-04-17T05:35:34.594Z,12.20
2018-04-17T05:38:02.627Z,12.20
2018-04-17T05:40:30.814Z,12.20
2018-04-17T05:42:58.975Z,12.20
2018-04-17T05:45:26.934Z,12.20
2018-04-17T05:47:54.955Z,12.30
2018-04-17T05:50:22.926Z,12.30
2018-04-17T05:52:50.946Z,12.30
2018-04-17T05:55:19.085Z,12.30
2018-04-17T05:57:47.225Z,12.40
2018-04-17T06:00:15.343Z,12.40
2018-04-17T06:02:53.194Z,12.50
2018-04-17T06:05:21.334Z,12.50
2018-04-17T06:07:49.235Z,12.50
2018-04-17T06:10:17.114Z,12.50
2018-04-17T06:12:44.953Z,12.60
2018-04-17T06:15:12.938Z,12.60
2018-04-17T06:17:41.214Z,12.60
2018-04-17T06:20:09.205Z,12.70
2018-04-17T06:22:37.175Z,12.70
2018-04-17T06:25:04.954Z,12.70
2018-04-17T06:27:32.973Z,12.80
2018-04-17T06:30:00.942Z,12.70
2018-04-17T06:32:29.813Z,12.80
2018-04-17T06:34:58.414Z,12.80
2018-04-17T06:37:26.191Z,12.70
2018-04-17T06:39:54.011Z,12.70
2018-04-17T06:42:21.808Z,12.60
2018-04-17T06:44:49.732Z,12.60
2018-04-17T06:47:17.564Z,12.60
2018-04-17T06:49:45.461Z,12.70
2018-04-17T06:52:13.290Z,12.70
2018-04-17T06:54:41.152Z,12.80
2018-04-17T06:57:09.171Z,12.80
2018-04-17T06:59:37.050Z,12.90
2018-04-17T07:02:04.911Z,12.90
2018-04-17T07:04:32.751Z,13.00
2018-04-17T07:07:00.711Z,13.00
2018-04-17T07:09:28.691Z,13.00
2018-04-17T07:11:57.211Z,13.20
2018-04-17T07:14:24.996Z,13.20
2018-04-17T07:16:53.116Z,13.20
2018-04-17T07:19:20.936Z,13.30
2018-04-17T07:21:48.916Z,13.30
2018-04-17T07:24:16.758Z,13.40
2018-04-17T07:26:44.714Z,13.50
2018-04-17T07:29:12.443Z,13.50
2018-04-17T07:31:40.256Z,13.60
2018-04-17T07:34:08.376Z,13.60
2018-04-17T07:36:36.332Z,13.70
2018-04-17T07:41:59.576Z,13.90
2018-04-17T07:44:27.538Z,13.90
2018-04-17T07:47:07.196Z,14.00
2018-04-17T07:49:35.036Z,14.10
2018-04-17T07:52:03.156Z,14.20
2018-04-17T07:54:31.076Z,14.20
2018-04-17T07:56:59.636Z,14.40
2018-04-17T07:59:33.351Z,14.40
2018-04-17T08:02:01.894Z,14.40
2018-04-17T08:04:29.732Z,14.50
2018-04-17T08:06:57.952Z,14.60
2018-04-17T08:09:25.775Z,14.60
2018-04-17T08:11:53.678Z,14.70
2018-04-17T08:14:21.620Z,14.80
2018-04-17T08:16:49.660Z,14.80
2018-04-17T08:19:17.812Z,14.80
2018-04-17T08:21:45.693Z,14.80
2018-04-17T08:24:13.576Z,14.90
2018-04-17T08:26:41.433Z,14.90
2018-04-17T08:29:09.977Z,15.00
2018-04-17T08:31:38.233Z,14.90
2018-04-17T08:34:06.094Z,15.00
2018-04-17T08:36:34.292Z,15.10
2018-04-17T08:39:02.293Z,15.10
2018-04-17T08:41:30.495Z,15.20
2018-04-17T08:43:58.353Z,15.20
2018-04-17T08:46:27.695Z,15.20
2018-04-17T08:48:55.653Z,15.30
2018-04-17T08:51:23.533Z,15.40
2018-04-17T08:53:52.211Z,15.60
2018-04-17T08:56:20.131Z,15.50
2018-04-17T08:58:48.051Z,15.70
2018-04-17T09:01:15.890Z,15.80
2018-04-17T09:03:44.460Z,16.10
2018-04-17T09:06:12.402Z,16.10
2018-04-17T09:08:40.391Z,16.30
2018-04-17T09:11:09.267Z,16.50
2018-04-17T09:13:37.154Z,16.60
2018-04-17T09:16:05.136Z,16.60
2018-04-17T09:18:33.773Z,16.80
2018-04-17T09:21:01.774Z,16.70
2018-04-17T09:23:29.754Z,16.80
2018-04-17T09:25:57.553Z,16.90
2018-04-17T09:28:25.634Z,16.90
2018-04-17T09:30:53.474Z,17.00
2018-04-17T09:33:21.634Z,17.10
2018-04-17T09:35:49.554Z,17.10
2018-04-17T09:38:17.453Z,17.20
2018-04-17T09:40:45.294Z,17.40
2018-04-17T09:43:13.214Z,17.60
2018-04-17T09:45:41.070Z,17.80
2018-04-17T09:48:09.194Z,17.90
2018-04-17T09:50:37.196Z,18.10
2018-04-17T09:53:05.014Z,18.20
2018-04-17T09:55:33.036Z,18.40
2018-04-17T09:58:00.922Z,18.40
2018-04-17T10:00:30.372Z,18.30
2018-04-17T10:02:58.234Z,18.30
2018-04-17T10:05:26.399Z,18.20
2018-04-17T10:07:54.332Z,18.20
2018-04-17T10:10:22.532Z,18.20
2018-04-17T10:12:50.492Z,18.30
2018-04-17T10:15:18.294Z,18.40
2018-04-17T10:17:46.334Z,18.40
2018-04-17T10:20:14.254Z,18.30
2018-04-17T10:22:43.130Z,18.40
2018-04-17T10:25:11.011Z,18.60
2018-04-17T10:27:39.199Z,18.50
2018-04-17T10:30:07.091Z,18.40
2018-04-17T10:32:35.131Z,18.30
2018-04-17T10:35:02.877Z,18.50
2018-04-17T10:37:31.052Z,18.50
2018-04-17T10:39:59.151Z,18.90
2018-04-17T10:42:27.051Z,19.30
2018-04-17T10:44:54.872Z,19.60
2018-04-17T10:47:22.874Z,19.70
2018-04-17T10:49:50.677Z,19.70
2018-04-17T10:52:18.552Z,19.30
2018-04-17T10:54:46.471Z,19.00
2018-04-17T10:57:14.431Z,18.80
2018-04-17T10:59:42.391Z,18.60
2018-04-17T11:02:10.351Z,18.50
2018-04-17T11:04:38.238Z,18.60
2018-04-17T11:07:06.292Z,18.70
2018-04-17T11:09:34.172Z,18.80
2018-04-17T11:12:04.171Z,18.90
2018-04-17T11:14:32.050Z,19.00
2018-04-17T11:17:00.010Z,19.10
2018-04-17T11:19:27.811Z,19.00
2018-04-17T11:21:55.792Z,18.80
2018-04-17T11:24:23.711Z,18.80
2018-04-17T11:26:51.515Z,18.70
2018-04-17T11:29:19.372Z,18.70
2018-04-17T11:31:47.248Z,18.60
2018-04-17T11:34:15.178Z,18.70
2018-04-17T11:36:43.097Z,18.70
2018-04-17T11:39:11.053Z,18.60
2018-04-17T11:41:38.890Z,18.60
2018-04-17T11:44:07.544Z,18.70
2018-04-17T11:46:35.410Z,18.70
2018-04-17T11:49:03.232Z,18.70
2018-04-17T11:51:31.011Z,18.60
2018-04-17T11:53:58.911Z,18.50
2018-04-17T11:56:26.752Z,18.40
2018-04-17T11:58:54.550Z,18.30
2018-04-17T12:01:22.652Z,18.30
2018-04-17T12:03:50.531Z,18.30
2018-04-17T12:06:18.510Z,18.30
2018-04-17T12:08:46.412Z,18.30
2018-04-17T12:11:14.250Z,18.30
2018-04-17T12:13:42.170Z,18.20
2018-04-17T12:16:09.991Z,18.20
2018-04-17T12:18:37.810Z,18.30
2018-04-17T12:21:05.710Z,18.30
2018-04-17T12:23:33.511Z,18.40
2018-04-17T12:26:01.310Z,18.40
2018-04-17T12:28:29.210Z,18.50
2018-04-17T12:30:56.989Z,18.50
2018-04-17T12:33:24.929Z,18.60
2018-04-17T12:35:53.629Z,18.80
2018-04-17T12:38:21.789Z,18.80
2018-04-17T12:40:49.688Z,18.90
2018-04-17T12:43:17.549Z,18.90
2018-04-17T12:45:45.530Z,19.00
2018-04-17T12:48:14.673Z,19.10
2018-04-17T12:50:42.829Z,19.10
2018-04-17T12:53:10.753Z,19.20
2018-04-17T12:55:38.669Z,19.20
2018-04-17T12:58:06.591Z,19.30
2018-04-17T13:00:34.709Z,19.50
2018-04-17T13:03:02.713Z,19.40
2018-04-17T13:05:30.874Z,19.50
2018-04-17T13:07:59.772Z,19.50
2018-04-17T13:10:27.708Z,19.60
2018-04-17T13:12:55.768Z,19.60
2018-04-17T13:15:23.752Z,19.70
2018-04-17T13:17:51.732Z,19.80
2018-04-17T13:20:19.951Z,19.50
2018-04-17T13:22:47.974Z,19.50
2018-04-17T13:25:15.912Z,19.60
2018-04-17T13:27:43.972Z,19.70
2018-04-17T13:30:12.172Z,19.90
2018-04-17T13:32:41.372Z,20.00
2018-04-17T13:35:09.497Z,20.00
2018-04-17T13:37:37.456Z,19.90
2018-04-17T13:40:05.395Z,19.90
2018-04-17T13:42:33.314Z,19.70
2018-04-17T13:45:01.233Z,19.60
2018-04-17T13:47:29.166Z,19.50
2018-04-17T13:49:57.114Z,19.60
2018-04-17T13:52:24.956Z,19.60
2018-04-17T13:54:52.814Z,19.60
2018-04-17T13:57:20.613Z,19.70
2018-04-17T13:59:48.536Z,19.70
2018-04-17T14:02:16.619Z,19.80
2018-04-17T14:04:44.517Z,19.80
2018-04-17T14:07:12.376Z,19.70
2018-04-17T14:09:40.536Z,19.70
2018-04-17T14:12:20.311Z,19.60
2018-04-17T14:14:48.373Z,19.50
2018-04-17T14:17:16.729Z,19.50
2018-04-17T14:19:45.073Z,19.50
2018-04-17T14:22:13.113Z,19.50
2018-04-17T14:24:41.332Z,19.40
2018-04-17T14:27:09.214Z,19.40
2018-04-17T14:29:37.293Z,19.40
2018-04-17T14:32:05.233Z,19.30
2018-04-17T14:34:33.134Z,19.30
2018-04-17T14:37:01.314Z,19.30
2018-04-17T14:39:29.294Z,19.30
2018-04-17T14:41:57.175Z,19.20
2018-04-17T14:44:25.114Z,19.30
2018-04-17T14:46:53.096Z,19.30
2018-04-17T14:49:21.001Z,19.30
2018-04-17T14:51:49.096Z,19.30
2018-04-17T14:54:17.015Z,19.30
2018-04-17T14:56:44.973Z,19.30
2018-04-17T14:59:12.993Z,19.30
2018-04-17T15:01:41.034Z,19.30
2018-04-17T15:04:08.973Z,19.30
2018-04-17T15:06:37.138Z,19.20
2018-04-17T15:09:08.211Z,19.30
2018-04-17T15:11:36.051Z,19.30
2018-04-17T15:14:04.011Z,19.50
2018-04-17T15:16:32.731Z,19.70
2018-04-17T15:19:00.716Z,19.60
2018-04-17T15:21:28.751Z,19.60
2018-04-17T15:26:28.671Z,19.60
2018-04-17T15:28:56.798Z,19.60
2018-04-17T15:31:24.751Z,19.60
2018-04-17T15:33:52.816Z,19.50
2018-04-17T15:36:21.832Z,19.50
2018-04-17T15:38:49.772Z,19.50
2018-04-17T15:41:19.538Z,19.50
2018-04-17T15:43:47.671Z,19.50
2018-04-17T15:46:15.760Z,19.50
2018-04-17T15:48:43.852Z,19.40
2018-04-17T15:51:11.933Z,19.40
2018-04-17T15:53:40.054Z,19.40
2018-04-17T15:56:08.372Z,19.40
2018-04-17T15:58:36.532Z,19.30
2018-04-17T16:01:04.721Z,19.40
2018-04-17T16:03:32.611Z,19.30
2018-04-17T16:06:00.711Z,19.30
2018-04-17T16:08:28.653Z,19.30
2018-04-17T16:10:56.572Z,19.30
2018-04-17T16:13:24.593Z,19.20
2018-04-17T16:15:52.432Z,19.10
2018-04-17T16:18:20.273Z,19.20
2018-04-17T16:20:48.372Z,19.20
2018-04-17T16:23:16.564Z,19.10
2018-04-17T16:25:44.373Z,19.00
2018-04-17T16:28:12.875Z,19.00
2018-04-17T16:30:40.753Z,19.00
2018-04-17T16:33:08.715Z,18.90
2018-04-17T16:35:37.412Z,18.80
2018-04-17T16:38:05.294Z,18.80
2018-04-17T16:40:33.212Z,18.80
2018-04-17T16:43:01.432Z,18.70
2018-04-17T16:45:29.576Z,18.70
2018-04-17T16:47:57.813Z,18.70
2018-04-17T16:50:26.052Z,18.60
2018-04-17T16:52:56.653Z,18.70
2018-04-17T16:55:24.504Z,18.60
2018-04-17T16:57:52.372Z,18.60
2018-04-17T17:00:20.037Z,18.60
2018-04-17T17:02:48.438Z,18.50
2018-04-17T17:08:04.413Z,18.40
2018-04-17T17:10:41.742Z,18.30
2018-04-17T17:13:17.017Z,18.20
2018-04-17T17:16:02.979Z,18.20
2018-04-17T17:18:40.417Z,18.10
2018-04-17T17:21:18.752Z,18.00
2018-04-17T17:26:36.513Z,18.00
2018-04-17T17:29:13.113Z,17.80
2018-04-17T17:34:23.069Z,17.70
2018-04-17T17:37:07.132Z,17.70
2018-04-17T17:39:51.577Z,17.70
2018-04-17T17:42:22.581Z,17.60
2018-04-17T17:45:05.033Z,17.60
2018-04-17T17:50:23.865Z,17.40
2018-04-17T17:53:05.035Z,17.40
2018-04-17T17:55:41.138Z,17.30
2018-04-17T18:01:06.338Z,17.20
2018-04-17T18:03:48.639Z,17.10
2018-04-17T18:06:26.694Z,17.00
2018-04-17T18:08:58.437Z,17.00
2018-04-17T18:11:31.915Z,16.90
2018-04-17T18:14:10.353Z,16.90
2018-04-17T18:16:48.832Z,16.80
2018-04-17T18:19:17.156Z,16.70
2018-04-17T18:21:45.276Z,16.60
2018-04-17T18:24:13.836Z,16.60
2018-04-17T18:26:42.205Z,16.60
2018-04-17T18:29:10.576Z,16.50
2018-04-17T18:31:38.515Z,16.40
2018-04-17T18:34:06.496Z,16.40
2018-04-17T18:36:34.597Z,16.30
2018-04-17T18:39:02.536Z,16.30
2018-04-17T18:41:30.880Z,16.20
2018-04-17T18:43:59.156Z,16.20
2018-04-17T18:46:27.199Z,16.20
2018-04-17T18:48:55.316Z,16.10
2018-04-17T18:51:23.435Z,16.00
2018-04-17T18:53:51.717Z,15.90
2018-04-17T18:56:19.877Z,15.80
2018-04-17T18:58:48.055Z,15.80
2018-04-17T19:01:16.213Z,15.70
2018-04-17T19:03:44.373Z,15.70
2018-04-17T19:06:12.551Z,15.70
2018-04-17T19:08:40.550Z,15.70
2018-04-17T19:11:08.484Z,15.70
2018-04-17T19:13:36.513Z,15.60
2018-04-17T19:16:04.650Z,15.60
2018-04-17T19:18:33.132Z,15.50
2018-04-17T19:21:01.794Z,15.40
2018-04-17T19:23:29.954Z,15.40
2018-04-17T19:25:59.124Z,15.40
2018-04-17T19:28:27.272Z,15.30
2018-04-17T19:30:56.376Z,15.30
2018-04-17T19:33:24.377Z,15.40
2018-04-17T19:35:52.556Z,15.40
2018-04-17T19:38:20.407Z,15.30
2018-04-17T19:40:48.375Z,15.30
2018-04-17T19:43:16.270Z,15.10
2018-04-17T19:45:45.950Z,15.10
2018-04-17T19:48:13.995Z,15.10
2018-04-17T19:50:43.224Z,15.00
2018-04-17T19:53:11.329Z,15.00
2018-04-17T19:55:39.265Z,15.00
2018-04-17T19:58:07.375Z,14.90
2018-04-17T20:00:35.343Z,15.00
2018-04-17T20:03:03.222Z,14.80
2018-04-17T20:05:32.633Z,14.70
2018-04-17T20:08:00.535Z,14.60
2018-04-17T20:10:28.793Z,14.70
2018-04-17T20:12:57.011Z,14.70
2018-04-17T20:15:25.069Z,14.80
2018-04-17T20:17:53.449Z,14.80
2018-04-17T20:20:21.550Z,14.70
2018-04-17T20:22:49.671Z,14.40
2018-04-17T20:25:17.650Z,14.20
2018-04-17T20:27:46.413Z,13.90
2018-04-17T20:30:14.454Z,13.80
2018-04-17T20:32:42.692Z,13.60
2018-04-17T20:35:10.891Z,13.40
2018-04-17T20:37:39.271Z,13.20
2018-04-17T20:40:07.409Z,13.10
2018-04-17T20:42:35.372Z,13.00
2018-04-17T20:45:03.159Z,13.10
2018-04-17T20:47:31.291Z,13.20
2018-04-17T20:49:59.370Z,13.40
2018-04-17T20:52:27.571Z,13.50
2018-04-17T20:54:55.630Z,13.70
2018-04-17T20:57:23.949Z,13.70
2018-04-17T20:59:51.831Z,13.80
2018-04-17T21:02:20.173Z,13.80
2018-04-17T21:04:48.195Z,13.80
2018-04-17T21:07:16.093Z,13.90
2018-04-17T21:09:44.034Z,13.90
2018-04-17T21:12:13.021Z,14.00
2018-04-17T21:14:41.074Z,14.00
2018-04-17T21:17:09.233Z,14.00
2018-04-17T21:19:37.393Z,14.10
2018-04-17T21:22:05.378Z,14.00
2018-04-17T21:24:33.357Z,14.00
2018-04-17T21:27:01.714Z,14.00
2018-04-17T21:29:29.675Z,14.00
2018-04-17T21:31:57.998Z,14.00
2018-04-17T21:34:25.953Z,14.00
2018-04-17T21:36:54.851Z,13.90
2018-04-17T21:39:22.872Z,13.90
2018-04-17T21:41:51.293Z,14.00
2018-04-17T21:44:19.352Z,14.00
2018-04-17T21:46:47.852Z,13.90
2018-04-17T21:49:15.631Z,13.80
2018-04-17T21:51:43.531Z,13.80
2018-04-17T21:54:11.469Z,13.80
2018-04-17T21:56:40.110Z,13.80
2018-04-17T21:59:08.010Z,13.70
2018-04-17T22:01:36.051Z,13.80
2018-04-17T22:04:03.972Z,13.80
2018-04-17T22:06:32.111Z,13.80
2018-04-17T22:09:00.092Z,13.80
2018-04-17T22:11:28.008Z,13.80
2018-04-17T22:13:56.172Z,13.80
2018-04-17T22:16:24.068Z,13.80
2018-04-17T22:18:52.528Z,13.80
2018-04-17T22:21:20.649Z,13.80
2018-04-17T22:23:48.688Z,13.80
2018-04-17T22:26:17.372Z,13.80
2018-04-17T22:28:45.169Z,13.80
2018-04-17T22:31:13.117Z,13.80
2018-04-17T22:33:40.948Z,13.80
2018-04-17T22:36:08.808Z,13.80
2018-04-17T22:38:37.008Z,13.80
2018-04-17T22:41:05.088Z,13.90
2018-04-17T22:43:33.070Z,13.80
2018-04-17T22:46:01.829Z,13.80
2018-04-17T22:48:29.769Z,13.80
2018-04-17T22:50:57.968Z,13.80
2018-04-17T22:53:26.049Z,13.80
2018-04-17T22:55:54.268Z,13.70
2018-04-17T22:58:22.133Z,13.70
2018-04-17T23:00:50.010Z,13.60
2018-04-17T23:03:18.010Z,13.60
2018-04-17T23:05:45.970Z,13.60
2018-04-17T23:08:13.851Z,13.60
2018-04-17T23:10:42.809Z,13.50
2018-04-17T23:13:11.410Z,13.50
2018-04-17T23:18:12.289Z,13.40
2018-04-17T23:20:40.690Z,13.40
2018-04-17T23:23:08.730Z,13.40
2018-04-17T23:25:36.689Z,13.20
2018-04-17T23:28:04.649Z,13.10
2018-04-17T23:30:33.272Z,13.10
2018-04-17T23:33:01.092Z,13.10
2018-04-17T23:35:28.891Z,13.20
2018-04-17T23:37:56.710Z,13.10
2018-04-17T23:40:24.690Z,12.90
2018-04-17T23:42:53.489Z,12.80
2018-04-17T23:45:21.389Z,12.70
2018-04-17T23:47:49.410Z,12.80
2018-04-17T23:50:17.271Z,12.70
2018-04-17T23:52:45.170Z,12.70
2018-04-17T23:55:13.231Z,12.60
2018-04-17T23:57:41.051Z,12.60
